createdAt,value
2022-10-17T00:01:11.226Z,99009.45
2022-10-17T00:03:40.301Z,99009.58
2022-10-17T00:06:11.230Z,99013.70
2022-10-17T00:08:41.110Z,99014.38
2022-10-17T00:11:14.947Z,99011.60
2022-10-17T00:13:42.996Z,99015.42
2022-10-17T00:16:11.460Z,99015.94
2022-10-17T00:18:39.750Z,99019.41
2022-10-17T00:21:16.361Z,99022.73
2022-10-17T00:23:44.941Z,99024.16
2022-10-17T00:26:13.923Z,99027.83
2022-10-17T00:28:41.957Z,99028.00
2022-10-17T00:31:11.869Z,99028.33
2022-10-17T00:33:40.043Z,99027.41
2022-10-17T00:36:13.646Z,99028.56
2022-10-17T00:38:44.214Z,99027.08
2022-10-17T00:41:15.433Z,99026.94
2022-10-17T00:44:02.485Z,99029.54
2022-10-17T00:46:35.984Z,99029.14
2022-10-17T00:49:09.739Z,99030.58
2022-10-17T00:51:43.378Z,99031.75
2022-10-17T00:54:15.104Z,99027.85
2022-10-17T00:56:46.949Z,99026.95
2022-10-17T00:59:17.759Z,99033.69
2022-10-17T01:01:57.064Z,99035.59
2022-10-17T01:04:24.886Z,99041.65
2022-10-17T01:06:54.001Z,99042.00
2022-10-17T01:09:22.564Z,99042.55
2022-10-17T01:11:50.904Z,99045.17
2022-10-17T01:14:40.643Z,99041.88
2022-10-17T01:17:41.122Z,99039.11
2022-10-17T01:20:24.316Z,99041.32
2022-10-17T01:23:19.401Z,99040.79
2022-10-17T01:26:21.588Z,99044.10
2022-10-17T01:29:04.978Z,99045.96
2022-10-17T01:31:44.101Z,99049.70
2022-10-17T01:34:26.337Z,99048.91
2022-10-17T01:36:57.252Z,99045.14
2022-10-17T01:39:56.700Z,99042.20
2022-10-17T01:42:52.002Z,99043.55
2022-10-17T01:45:28.644Z,99047.21
2022-10-17T01:48:00.600Z,99047.49
2022-10-17T01:50:36.308Z,99050.39
2022-10-17T01:53:22.660Z,99057.84
2022-10-17T01:55:55.529Z,99064.45
2022-10-17T01:58:33.800Z,99073.44
2022-10-17T02:01:06.490Z,99073.10
2022-10-17T02:03:35.800Z,99076.27
2022-10-17T02:06:06.993Z,99079.95
2022-10-17T02:08:48.242Z,99078.61
2022-10-17T02:11:18.570Z,99077.80
2022-10-17T02:14:23.049Z,99076.62
2022-10-17T02:17:21.635Z,99078.16
2022-10-17T02:20:08.755Z,99083.36
2022-10-17T02:23:09.661Z,99086.98
2022-10-17T02:25:43.693Z,99086.14
2022-10-17T02:28:29.610Z,99089.20
2022-10-17T02:31:01.459Z,99089.95
2022-10-17T02:33:58.784Z,99089.86
2022-10-17T02:36:41.854Z,99093.14
2022-10-17T02:39:13.776Z,99092.89
2022-10-17T02:41:43.706Z,99092.23
2022-10-17T02:44:13.315Z,99094.65
2022-10-17T02:46:43.159Z,99094.34
2022-10-17T02:49:30.048Z,99098.56
2022-10-17T02:52:42.836Z,99097.66
2022-10-17T02:55:20.846Z,99096.27
2022-10-17T02:57:54.918Z,99095.73
2022-10-17T03:00:25.241Z,99104.63
2022-10-17T03:02:54.687Z,99109.84
2022-10-17T03:05:25.861Z,99107.61
2022-10-17T03:07:54.990Z,99106.27
2022-10-17T03:10:26.151Z,99106.83
2022-10-17T03:12:56.204Z,99104.60
2022-10-17T03:15:25.017Z,99105.21
2022-10-17T03:17:53.443Z,99107.00
2022-10-17T03:20:21.797Z,99105.82
2022-10-17T03:22:51.505Z,99112.10
2022-10-17T03:25:20.266Z,99112.80
2022-10-17T03:27:49.102Z,99115.13
2022-10-17T03:30:17.464Z,99113.93
2022-10-17T03:32:46.289Z,99116.77
2022-10-17T03:35:14.938Z,99124.36
2022-10-17T03:37:46.267Z,99123.77
2022-10-17T03:40:16.036Z,99125.91
2022-10-17T03:42:45.203Z,99120.73
2022-10-17T03:45:13.603Z,99119.52
2022-10-17T03:47:43.188Z,99121.09
2022-10-17T03:50:11.607Z,99128.41
2022-10-17T03:52:40.660Z,99132.77
2022-10-17T03:55:10.463Z,99133.48
2022-10-17T03:57:41.142Z,99132.26
2022-10-17T04:00:13.299Z,99127.80
2022-10-17T04:02:52.418Z,99128.77
2022-10-17T04:05:21.377Z,99135.80
2022-10-17T04:07:52.900Z,99133.17
2022-10-17T04:10:24.613Z,99130.53
2022-10-17T04:12:52.967Z,99131.02
2022-10-17T04:15:21.148Z,99124.08
2022-10-17T04:17:49.166Z,99128.61
2022-10-17T04:20:18.151Z,99127.80
2022-10-17T04:22:46.492Z,99127.77
2022-10-17T04:25:15.640Z,99128.42
2022-10-17T04:27:47.001Z,99128.37
2022-10-17T04:30:15.335Z,99127.95
2022-10-17T04:32:44.324Z,99131.02
2022-10-17T04:35:22.041Z,99129.28
2022-10-17T04:37:55.461Z,99130.48
2022-10-17T04:40:23.667Z,99129.64
2022-10-17T04:42:53.764Z,99130.09
2022-10-17T04:45:23.936Z,99130.08
2022-10-17T04:47:54.133Z,99131.61
2022-10-17T04:50:22.181Z,99128.80
2022-10-17T04:53:06.360Z,99133.65
2022-10-17T04:55:38.182Z,99137.98
2022-10-17T04:58:06.275Z,99136.59
2022-10-17T05:00:34.692Z,99136.40
2022-10-17T05:03:11.330Z,99138.08
2022-10-17T05:05:40.994Z,99139.57
2022-10-17T05:08:11.586Z,99140.58
2022-10-17T05:10:43.214Z,99142.98
2022-10-17T05:13:12.266Z,99146.98
2022-10-17T05:15:42.163Z,99151.01
2022-10-17T05:18:11.309Z,99153.17
2022-10-17T05:20:39.571Z,99157.93
2022-10-17T05:23:08.089Z,99161.94
2022-10-17T05:25:40.361Z,99172.17
2022-10-17T05:28:08.498Z,99172.70
2022-10-17T05:30:37.830Z,99175.48
2022-10-17T05:33:09.266Z,99176.38
2022-10-17T05:35:39.043Z,99176.87
2022-10-17T05:38:07.257Z,99182.88
2022-10-17T05:40:35.914Z,99179.86
2022-10-17T05:43:04.206Z,99177.46
2022-10-17T05:45:32.736Z,99180.94
2022-10-17T05:48:01.829Z,99179.88
2022-10-17T05:50:30.423Z,99184.13
2022-10-17T05:53:06.204Z,99186.39
2022-10-17T05:55:39.112Z,99188.45
2022-10-17T05:58:09.767Z,99190.23
2022-10-17T06:00:43.504Z,99194.00
2022-10-17T06:03:12.682Z,99189.45
2022-10-17T06:05:41.210Z,99187.92
2022-10-17T06:08:09.502Z,99190.60
2022-10-17T06:10:39.017Z,99192.83
2022-10-17T06:13:07.646Z,99188.96
2022-10-17T06:15:36.223Z,99189.83
2022-10-17T06:18:08.240Z,99191.48
2022-10-17T06:20:37.445Z,99190.52
2022-10-17T06:23:06.430Z,99189.90
2022-10-17T06:25:50.241Z,99186.15
2022-10-17T06:28:18.776Z,99183.06
2022-10-17T06:30:47.436Z,99181.17
2022-10-17T06:33:16.901Z,99183.14
2022-10-17T06:35:51.913Z,99182.80
2022-10-17T06:38:20.963Z,99187.00
2022-10-17T06:40:52.205Z,99189.98
2022-10-17T06:43:26.999Z,99189.61
2022-10-17T06:46:22.328Z,99188.88
2022-10-17T06:48:57.560Z,99189.73
2022-10-17T06:51:44.915Z,99185.85
2022-10-17T06:54:16.296Z,99190.22
2022-10-17T06:56:45.408Z,99197.36
2022-10-17T06:59:34.425Z,99195.60
2022-10-17T07:02:13.015Z,99192.08
2022-10-17T07:04:42.091Z,99191.55
2022-10-17T07:07:14.469Z,99198.02
2022-10-17T07:09:43.907Z,99198.66
2022-10-17T07:12:14.392Z,99194.19
2022-10-17T07:14:47.899Z,99189.04
2022-10-17T07:17:17.674Z,99189.88
2022-10-17T07:19:47.039Z,99188.54
2022-10-17T07:22:15.672Z,99190.61
2022-10-17T07:27:29.445Z,99194.16
2022-10-17T07:29:59.186Z,99199.21
2022-10-17T07:32:42.809Z,99201.00
2022-10-17T07:35:12.803Z,99204.66
2022-10-17T07:37:42.709Z,99208.40
2022-10-17T07:40:11.441Z,99208.98
2022-10-17T07:45:16.045Z,99214.31
2022-10-17T07:47:46.202Z,99217.79
2022-10-17T07:50:18.080Z,99218.80
2022-10-17T07:52:47.699Z,99221.40
2022-10-17T07:55:18.568Z,99220.16
2022-10-17T07:57:48.584Z,99217.89
2022-10-17T08:00:16.965Z,99223.63
2022-10-17T08:02:46.032Z,99222.91
2022-10-17T08:05:15.253Z,99222.38
2022-10-17T08:07:43.955Z,99219.40
2022-10-17T08:10:14.926Z,99222.73
2022-10-17T08:12:44.087Z,99223.27
2022-10-17T08:15:13.915Z,99223.63
2022-10-17T08:17:43.324Z,99227.13
2022-10-17T08:20:12.673Z,99228.38
2022-10-17T08:22:41.593Z,99224.05
2022-10-17T08:25:11.011Z,99223.55
2022-10-17T08:27:40.451Z,99224.23
2022-10-17T08:30:10.598Z,99227.04
2022-10-17T08:32:39.598Z,99228.10
2022-10-17T08:35:09.167Z,99226.52
2022-10-17T08:37:38.059Z,99225.65
2022-10-17T08:40:08.083Z,99231.60
2022-10-17T08:42:51.627Z,99237.91
2022-10-17T08:46:01.054Z,99239.83
2022-10-17T08:48:44.053Z,99244.58
2022-10-17T08:51:21.344Z,99245.48
2022-10-17T08:53:55.145Z,99245.98
2022-10-17T08:56:49.560Z,99244.08
2022-10-17T08:59:26.084Z,99238.99
2022-10-17T09:02:02.532Z,99239.19
2022-10-17T09:05:02.035Z,99241.80
2022-10-17T09:08:10.067Z,99246.17
2022-10-17T09:10:53.512Z,99244.96
2022-10-17T09:13:34.084Z,99240.94
2022-10-17T09:16:13.965Z,99236.71
2022-10-17T09:18:53.701Z,99235.81
2022-10-17T09:21:55.028Z,99235.29
2022-10-17T09:24:53.866Z,99237.70
2022-10-17T09:27:42.761Z,99237.49
2022-10-17T09:30:51.027Z,99237.48
2022-10-17T09:33:42.183Z,99239.34
2022-10-17T09:36:19.230Z,99238.41
2022-10-17T09:39:00.561Z,99237.36
2022-10-17T09:41:48.577Z,99238.16
2022-10-17T09:44:28.160Z,99235.96
2022-10-17T09:47:06.667Z,99234.98
2022-10-17T09:49:41.567Z,99235.27
2022-10-17T09:52:20.518Z,99234.83
2022-10-17T09:54:52.769Z,99235.34
2022-10-17T09:57:23.049Z,99233.71
2022-10-17T10:00:05.017Z,99228.23
2022-10-17T10:02:43.324Z,99225.64
2022-10-17T10:05:20.870Z,99224.74
2022-10-17T10:08:03.970Z,99228.46
2022-10-17T10:10:33.502Z,99224.14
2022-10-17T10:13:26.197Z,99218.77
2022-10-17T10:16:15.538Z,99216.31
2022-10-17T10:18:45.475Z,99213.41
2022-10-17T10:21:22.517Z,99211.70
2022-10-17T10:24:03.545Z,99208.73
2022-10-17T10:26:46.194Z,99207.33
2022-10-17T10:29:37.064Z,99202.79
2022-10-17T10:32:30.112Z,99206.23
2022-10-17T10:35:03.922Z,99203.61
2022-10-17T10:37:43.835Z,99200.50
2022-10-17T10:40:28.444Z,99201.13
2022-10-17T10:43:04.871Z,99199.99
2022-10-17T10:45:52.566Z,99194.95
2022-10-17T10:48:27.444Z,99189.70
2022-10-17T10:51:05.916Z,99186.52
2022-10-17T10:53:39.238Z,99179.53
2022-10-17T10:56:23.181Z,99176.22
2022-10-17T10:59:05.497Z,99173.92
2022-10-17T11:01:53.347Z,99171.52
2022-10-17T11:04:44.909Z,99169.93
2022-10-17T11:07:16.487Z,99166.77
2022-10-17T11:09:58.880Z,99165.36
2022-10-17T11:12:31.282Z,99163.93
2022-10-17T11:15:21.252Z,99160.20
2022-10-17T11:18:00.062Z,99154.92
2022-10-17T11:21:01.006Z,99155.52
2022-10-17T11:24:05.530Z,99155.38
2022-10-17T11:26:41.674Z,99150.70
2022-10-17T11:29:13.738Z,99149.54
2022-10-17T11:31:48.462Z,99148.47
2022-10-17T11:34:24.498Z,99147.70
2022-10-17T11:36:59.023Z,99145.96
2022-10-17T11:39:48.849Z,99147.69
2022-10-17T11:42:38.192Z,99140.25
2022-10-17T11:45:14.497Z,99136.74
2022-10-17T11:47:48.901Z,99135.01
2022-10-17T11:53:26.262Z,99130.39
2022-10-17T11:55:58.036Z,99129.86
2022-10-17T11:58:53.669Z,99130.73
2022-10-17T12:01:58.331Z,99126.64
2022-10-17T12:04:38.472Z,99120.21
2022-10-17T12:07:21.158Z,99122.73
2022-10-17T12:10:25.476Z,99116.84
2022-10-17T12:12:54.214Z,99117.44
2022-10-17T12:15:26.586Z,99116.55
2022-10-17T12:18:02.991Z,99114.80
2022-10-17T12:20:39.269Z,99112.92
2022-10-17T12:23:11.653Z,99106.75
2022-10-17T12:25:57.082Z,99102.02
2022-10-17T12:28:31.970Z,99101.04
2022-10-17T12:31:05.950Z,99101.91
2022-10-17T12:33:39.317Z,99100.99
2022-10-17T12:36:17.387Z,99102.51
2022-10-17T12:38:49.934Z,99099.44
2022-10-17T12:41:38.426Z,99098.83
2022-10-17T12:44:13.501Z,99098.05
2022-10-17T12:46:48.551Z,99095.73
2022-10-17T12:49:22.311Z,99092.15
2022-10-17T12:52:06.331Z,99087.70
2022-10-17T12:54:47.954Z,99088.15
2022-10-17T12:57:40.793Z,99088.56
2022-10-17T13:00:31.011Z,99087.22
2022-10-17T13:03:17.868Z,99086.96
2022-10-17T13:05:54.011Z,99085.48
2022-10-17T13:08:28.501Z,99086.45
2022-10-17T13:10:58.073Z,99087.97
2022-10-17T13:13:43.742Z,99088.85
2022-10-17T13:16:34.034Z,99092.08
2022-10-17T13:19:12.529Z,99092.25
2022-10-17T13:21:56.119Z,99089.77
2022-10-17T13:24:36.024Z,99088.42
2022-10-17T13:27:06.370Z,99088.72
2022-10-17T13:29:34.784Z,99093.05
2022-10-17T13:32:05.758Z,99095.04
2022-10-17T13:34:34.517Z,99095.03
2022-10-17T13:37:10.784Z,99097.34
2022-10-17T13:39:54.861Z,99095.70
2022-10-17T13:42:28.112Z,99092.50
2022-10-17T13:44:59.891Z,99093.39
2022-10-17T13:47:34.194Z,99093.20
2022-10-17T13:50:03.250Z,99094.86
2022-10-17T13:52:32.626Z,99093.84
2022-10-17T13:55:17.501Z,99091.38
2022-10-17T13:57:47.470Z,99090.00
2022-10-17T14:00:22.473Z,99087.90
2022-10-17T14:02:51.706Z,99081.94
2022-10-17T14:05:23.859Z,99079.75
2022-10-17T14:08:11.927Z,99075.57
2022-10-17T14:10:44.306Z,99073.85
2022-10-17T14:13:44.577Z,99075.15
2022-10-17T14:16:12.980Z,99079.14
2022-10-17T14:18:44.628Z,99079.21
2022-10-17T14:21:43.941Z,99077.52
2022-10-17T14:24:23.673Z,99076.94
2022-10-17T14:26:59.562Z,99076.35
2022-10-17T14:29:31.860Z,99077.15
2022-10-17T14:32:11.044Z,99077.13
2022-10-17T14:34:40.849Z,99075.29
2022-10-17T14:37:41.572Z,99076.27
2022-10-17T14:40:25.833Z,99073.38
2022-10-17T14:42:58.463Z,99076.02
2022-10-17T14:45:29.957Z,99074.62
2022-10-17T14:48:12.475Z,99070.52
2022-10-17T14:50:42.413Z,99074.52
2022-10-17T14:53:10.518Z,99074.66
2022-10-17T14:55:56.551Z,99079.20
2022-10-17T14:58:31.015Z,99077.94
2022-10-17T15:01:02.011Z,99079.34
2022-10-17T15:03:31.331Z,99075.60
2022-10-17T15:06:20.568Z,99076.80
2022-10-17T15:08:49.283Z,99082.80
2022-10-17T15:11:18.858Z,99085.46
2022-10-17T15:13:48.431Z,99079.85
2022-10-17T15:16:24.354Z,99081.99
2022-10-17T15:18:54.886Z,99081.65
2022-10-17T15:21:37.325Z,99079.56
2022-10-17T15:24:07.154Z,99080.73
2022-10-17T15:26:35.492Z,99081.30
2022-10-17T15:29:04.173Z,99081.19
2022-10-17T15:31:32.560Z,99081.75
2022-10-17T15:34:00.633Z,99083.75
2022-10-17T15:36:30.204Z,99083.66
2022-10-17T15:39:02.443Z,99088.73
2022-10-17T15:41:32.035Z,99088.51
2022-10-17T15:44:01.185Z,99090.23
2022-10-17T15:46:34.754Z,99091.42
2022-10-17T15:49:07.797Z,99097.03
2022-10-17T15:51:37.683Z,99099.61
2022-10-17T15:54:06.740Z,99099.17
2022-10-17T15:56:39.775Z,99103.13
2022-10-17T15:59:13.981Z,99107.41
2022-10-17T16:01:42.911Z,99108.13
2022-10-17T16:04:16.233Z,99106.92
2022-10-17T16:06:45.019Z,99109.07
2022-10-17T16:09:13.111Z,99113.98
2022-10-17T16:11:43.918Z,99118.20
2022-10-17T16:14:15.569Z,99120.44
2022-10-17T16:16:44.918Z,99123.55
2022-10-17T16:19:13.483Z,99123.15
2022-10-17T16:21:42.252Z,99124.67
2022-10-17T16:24:12.429Z,99129.71
2022-10-17T16:26:40.811Z,99129.96
2022-10-17T16:29:10.651Z,99128.65
2022-10-17T16:31:44.897Z,99129.10
2022-10-17T16:34:15.314Z,99132.00
2022-10-17T16:36:43.517Z,99136.65
2022-10-17T16:39:11.668Z,99137.77
2022-10-17T16:41:39.874Z,99138.02
2022-10-17T16:44:13.325Z,99140.17
2022-10-17T16:46:41.594Z,99141.97
2022-10-17T16:49:10.322Z,99142.73
2022-10-17T16:51:38.522Z,99142.55
2022-10-17T16:54:06.824Z,99141.69
2022-10-17T16:56:34.898Z,99141.52
2022-10-17T16:59:03.249Z,99141.88
2022-10-17T17:01:31.803Z,99145.20
2022-10-17T17:04:00.458Z,99149.93
2022-10-17T17:06:30.424Z,99155.73
2022-10-17T17:08:58.413Z,99156.63
2022-10-17T17:11:27.929Z,99158.58
2022-10-17T17:13:57.765Z,99163.50
2022-10-17T17:16:27.712Z,99164.23
2022-10-17T17:19:01.537Z,99163.89
2022-10-17T17:21:31.779Z,99164.27
2022-10-17T17:24:01.671Z,99159.92
2022-10-17T17:26:32.618Z,99163.08
2022-10-17T17:29:01.159Z,99162.05
2022-10-17T17:31:32.055Z,99163.29
2022-10-17T17:34:00.713Z,99170.84
2022-10-17T17:36:32.761Z,99173.83
2022-10-17T17:39:04.275Z,99174.02
2022-10-17T17:41:33.469Z,99174.72
2022-10-17T17:44:02.781Z,99178.75
2022-10-17T17:46:31.313Z,99182.61
2022-10-17T17:49:00.719Z,99182.09
2022-10-17T17:51:29.425Z,99183.50
2022-10-17T17:53:58.076Z,99187.00
2022-10-17T17:56:29.544Z,99187.70
2022-10-17T17:59:02.934Z,99190.15
2022-10-17T18:01:36.907Z,99190.86
2022-10-17T18:04:08.929Z,99189.11
2022-10-17T18:06:38.985Z,99191.20
2022-10-17T18:09:08.048Z,99193.99
2022-10-17T18:11:37.478Z,99186.30
2022-10-17T18:14:11.542Z,99184.36
2022-10-17T18:16:39.704Z,99182.61
2022-10-17T18:19:10.405Z,99182.77
2022-10-17T18:21:39.035Z,99186.98
2022-10-17T18:24:11.839Z,99184.68
2022-10-17T18:26:40.042Z,99186.77
2022-10-17T18:29:08.238Z,99186.23
2022-10-17T18:31:36.488Z,99187.44
2022-10-17T18:34:05.872Z,99191.09
2022-10-17T18:36:35.354Z,99193.52
2022-10-17T18:39:05.186Z,99194.56
2022-10-17T18:41:34.317Z,99194.39
2022-10-17T18:44:05.998Z,99193.86
2022-10-17T18:46:40.863Z,99192.63
2022-10-17T18:49:11.192Z,99189.13
2022-10-17T18:51:40.271Z,99189.83
2022-10-17T18:54:14.608Z,99192.27
2022-10-17T18:56:44.121Z,99194.35
2022-10-17T18:59:13.536Z,99195.56
2022-10-17T19:01:43.693Z,99197.29
2022-10-17T19:04:12.423Z,99199.89
2022-10-17T19:06:41.463Z,99202.14
2022-10-17T19:09:11.835Z,99203.34
2022-10-17T19:11:42.430Z,99204.02
2022-10-17T19:14:13.615Z,99205.20
2022-10-17T19:16:46.189Z,99207.42
2022-10-17T19:19:18.856Z,99206.86
2022-10-17T19:21:47.110Z,99210.15
2022-10-17T19:24:17.843Z,99210.32
2022-10-17T19:26:47.379Z,99210.48
2022-10-17T19:29:17.081Z,99213.79
2022-10-17T19:31:46.572Z,99217.96
2022-10-17T19:34:16.066Z,99217.26
2022-10-17T19:36:45.749Z,99218.85
2022-10-17T19:39:19.721Z,99220.25
2022-10-17T19:41:48.841Z,99221.80
2022-10-17T19:44:17.059Z,99221.63
2022-10-17T19:46:47.164Z,99219.86
2022-10-17T19:49:16.167Z,99218.44
2022-10-17T19:51:45.534Z,99218.77
2022-10-17T19:54:15.617Z,99215.06
2022-10-17T19:56:44.337Z,99213.45
2022-10-17T19:59:15.059Z,99212.72
2022-10-17T20:01:43.857Z,99212.84
2022-10-17T20:04:13.207Z,99208.60
2022-10-17T20:06:41.808Z,99211.52
2022-10-17T20:09:15.698Z,99207.63
2022-10-17T20:11:45.767Z,99210.40
2022-10-17T20:14:13.725Z,99211.06
2022-10-17T20:16:44.903Z,99210.00
2022-10-17T20:19:13.941Z,99205.80
2022-10-17T20:21:44.185Z,99207.02
2022-10-17T20:24:15.669Z,99206.66
2022-10-17T20:26:44.929Z,99204.72
2022-10-17T20:29:16.362Z,99206.13
2022-10-17T20:31:46.237Z,99207.52
2022-10-17T20:34:16.451Z,99206.29
2022-10-17T20:36:44.935Z,99205.23
2022-10-17T20:39:14.916Z,99204.66
2022-10-17T20:41:44.213Z,99208.98
2022-10-17T20:44:13.090Z,99209.11
2022-10-17T20:46:48.722Z,99210.10
2022-10-17T20:49:26.624Z,99213.16
2022-10-17T20:51:54.875Z,99207.86
2022-10-17T20:54:22.923Z,99210.95
2022-10-17T20:56:51.038Z,99207.60
2022-10-17T20:59:19.431Z,99208.79
2022-10-17T21:01:48.105Z,99210.14
2022-10-17T21:07:04.707Z,99209.92
2022-10-17T21:09:33.435Z,99208.70
2022-10-17T21:14:29.933Z,99207.52
2022-10-17T21:17:01.040Z,99204.90
2022-10-17T21:19:31.944Z,99208.39
2022-10-17T21:22:00.098Z,99205.77
2022-10-17T21:24:28.251Z,99208.73
2022-10-17T21:26:57.796Z,99208.16
2022-10-17T21:29:26.074Z,99212.31
2022-10-17T21:31:53.966Z,99212.08
2022-10-17T21:34:27.933Z,99212.88
2022-10-17T21:36:55.991Z,99212.30
2022-10-17T21:39:25.063Z,99212.41
2022-10-17T21:41:54.106Z,99214.41
2022-10-17T21:44:25.568Z,99215.04
2022-10-17T21:46:55.974Z,99214.10
2022-10-17T21:49:25.606Z,99217.53
2022-10-17T21:51:54.214Z,99224.83
2022-10-17T21:54:23.913Z,99219.58
2022-10-17T21:56:53.009Z,99219.73
2022-10-17T21:59:20.858Z,99217.84
2022-10-17T22:01:48.898Z,99216.10
2022-10-17T22:04:19.229Z,99212.27
2022-10-17T22:06:51.385Z,99212.41
2022-10-17T22:09:22.945Z,99208.91
2022-10-17T22:11:54.070Z,99210.83
2022-10-17T22:14:26.967Z,99210.66
2022-10-17T22:16:55.362Z,99205.94
2022-10-17T22:19:26.322Z,99208.87
2022-10-17T22:21:55.198Z,99208.10
2022-10-17T22:24:23.837Z,99207.65
2022-10-17T22:26:52.041Z,99204.23
2022-10-17T22:29:20.915Z,99202.41
2022-10-17T22:31:49.341Z,99202.66
2022-10-17T22:34:19.111Z,99198.57
2022-10-17T22:36:48.966Z,99197.42
2022-10-17T22:39:17.510Z,99197.16
2022-10-17T22:41:45.691Z,99200.21
2022-10-17T22:44:13.917Z,99201.91
2022-10-17T22:46:42.109Z,99203.11
2022-10-17T22:49:10.271Z,99201.02
2022-10-17T22:51:38.558Z,99201.75
2022-10-17T22:54:06.696Z,99200.71
2022-10-17T22:56:35.227Z,99198.11
2022-10-17T22:59:04.116Z,99197.78
2022-10-17T23:01:32.648Z,99193.41
2022-10-17T23:04:00.772Z,99186.26
2022-10-17T23:06:28.732Z,99193.06
2022-10-17T23:08:56.764Z,99196.57
2022-10-17T23:11:24.849Z,99197.98
2022-10-17T23:13:52.774Z,99194.14
2022-10-17T23:16:20.767Z,99193.77
2022-10-17T23:18:48.719Z,99195.66
2022-10-17T23:21:16.634Z,99193.85
2022-10-17T23:23:44.623Z,99193.63
2022-10-17T23:26:14.345Z,99196.33
2022-10-17T23:28:43.458Z,99198.30
2022-10-17T23:31:14.412Z,99195.05
2022-10-17T23:33:45.205Z,99197.39
2022-10-17T23:36:16.050Z,99197.48
2022-10-17T23:38:45.341Z,99195.33
2022-10-17T23:41:14.058Z,99197.36
2022-10-17T23:43:42.678Z,99193.13
2022-10-17T23:46:11.531Z,99190.14
2022-10-17T23:48:40.274Z,99188.92
2022-10-17T23:51:09.941Z,99184.26
2022-10-17T23:53:38.497Z,99186.17
2022-10-17T23:56:08.097Z,99184.57
2022-10-17T23:58:37.644Z,99183.00
